sensor_id;sensor_type;location;lat;lon;timestamp;P1;durP1;ratioP1;P2;durP2;ratioP2
76837;SDS011;65797;47.352;8.164;2024-02-26T00:01:36;1.60;;;1.30;;
76837;SDS011;65797;47.352;8.164;2024-02-26T00:04:02;1.43;;;1.20;;
76837;SDS011;65797;47.352;8.164;2024-02-26T00:06:28;2.07;;;1.90;;
76837;SDS011;65797;47.352;8.164;2024-02-26T00:08:54;1.80;;;1.50;;
76837;SDS011;65797;47.352;8.164;2024-02-26T00:11:21;1.20;;;1.10;;
76837;SDS011;65797;47.352;8.164;2024-02-26T00:13:47;1.10;;;1.10;;
76837;SDS011;65797;47.352;8.164;2024-02-26T00:16:13;1.50;;;1.30;;
76837;SDS011;65797;47.352;8.164;2024-02-26T00:18:38;1.10;;;0.93;;
76837;SDS011;65797;47.352;8.164;2024-02-26T00:21:04;2.00;;;1.30;;
76837;SDS011;65797;47.352;8.164;2024-02-26T00:23:30;3.10;;;1.00;;
76837;SDS011;65797;47.352;8.164;2024-02-26T00:25:56;1.77;;;1.10;;
76837;SDS011;65797;47.352;8.164;2024-02-26T00:28:22;0.87;;;0.87;;
76837;SDS011;65797;47.352;8.164;2024-02-26T00:33:25;0.83;;;0.83;;
76837;SDS011;65797;47.352;8.164;2024-02-26T00:35:51;0.80;;;0.80;;
76837;SDS011;65797;47.352;8.164;2024-02-26T00:38:16;1.23;;;1.07;;
76837;SDS011;65797;47.352;8.164;2024-02-26T00:40:42;0.90;;;0.87;;
76837;SDS011;65797;47.352;8.164;2024-02-26T00:43:08;0.93;;;0.70;;
76837;SDS011;65797;47.352;8.164;2024-02-26T00:45:33;1.53;;;0.90;;
76837;SDS011;65797;47.352;8.164;2024-02-26T00:47:59;0.83;;;0.83;;
76837;SDS011;65797;47.352;8.164;2024-02-26T00:50:30;1.20;;;0.90;;
76837;SDS011;65797;47.352;8.164;2024-02-26T00:52:56;0.93;;;0.83;;
76837;SDS011;65797;47.352;8.164;2024-02-26T00:55:22;0.90;;;0.90;;
76837;SDS011;65797;47.352;8.164;2024-02-26T00:57:48;0.80;;;0.80;;
76837;SDS011;65797;47.352;8.164;2024-02-26T01:00:13;0.50;;;0.50;;
76837;SDS011;65797;47.352;8.164;2024-02-26T01:02:40;1.10;;;0.80;;
76837;SDS011;65797;47.352;8.164;2024-02-26T01:05:06;0.63;;;0.63;;
76837;SDS011;65797;47.352;8.164;2024-02-26T01:07:34;1.00;;;0.53;;
76837;SDS011;65797;47.352;8.164;2024-02-26T01:10:01;0.57;;;0.50;;
76837;SDS011;65797;47.352;8.164;2024-02-26T01:12:28;0.80;;;0.80;;
76837;SDS011;65797;47.352;8.164;2024-02-26T01:14:53;1.13;;;1.00;;
76837;SDS011;65797;47.352;8.164;2024-02-26T01:17:19;0.60;;;0.60;;
76837;SDS011;65797;47.352;8.164;2024-02-26T01:19:45;0.60;;;0.60;;
76837;SDS011;65797;47.352;8.164;2024-02-26T01:22:10;0.60;;;0.60;;
76837;SDS011;65797;47.352;8.164;2024-02-26T01:24:36;0.60;;;0.60;;
76837;SDS011;65797;47.352;8.164;2024-02-26T01:27:02;0.80;;;0.80;;
76837;SDS011;65797;47.352;8.164;2024-02-26T01:29:28;1.07;;;0.60;;
76837;SDS011;65797;47.352;8.164;2024-02-26T01:31:53;0.50;;;0.50;;
76837;SDS011;65797;47.352;8.164;2024-02-26T01:34:20;0.63;;;0.63;;
76837;SDS011;65797;47.352;8.164;2024-02-26T01:36:45;0.50;;;0.50;;
76837;SDS011;65797;47.352;8.164;2024-02-26T01:39:11;0.60;;;0.60;;
76837;SDS011;65797;47.352;8.164;2024-02-26T01:41:38;0.60;;;0.60;;
76837;SDS011;65797;47.352;8.164;2024-02-26T01:44:04;8.30;;;0.70;;
76837;SDS011;65797;47.352;8.164;2024-02-26T01:46:30;0.60;;;0.60;;
76837;SDS011;65797;47.352;8.164;2024-02-26T01:48:57;0.97;;;0.50;;
76837;SDS011;65797;47.352;8.164;2024-02-26T01:51:23;1.33;;;0.70;;
76837;SDS011;65797;47.352;8.164;2024-02-26T01:53:49;0.60;;;0.60;;
76837;SDS011;65797;47.352;8.164;2024-02-26T01:56:14;1.43;;;0.67;;
76837;SDS011;65797;47.352;8.164;2024-02-26T01:58:42;1.23;;;0.77;;
76837;SDS011;65797;47.352;8.164;2024-02-26T02:01:08;0.70;;;0.70;;
76837;SDS011;65797;47.352;8.164;2024-02-26T02:03:34;0.63;;;0.63;;
76837;SDS011;65797;47.352;8.164;2024-02-26T02:06:01;0.60;;;0.60;;
76837;SDS011;65797;47.352;8.164;2024-02-26T02:08:28;0.60;;;0.60;;
76837;SDS011;65797;47.352;8.164;2024-02-26T02:10:54;0.50;;;0.50;;
76837;SDS011;65797;47.352;8.164;2024-02-26T02:13:20;0.60;;;0.60;;
76837;SDS011;65797;47.352;8.164;2024-02-26T02:15:46;0.90;;;0.83;;
76837;SDS011;65797;47.352;8.164;2024-02-26T02:18:12;8.67;;;0.93;;
76837;SDS011;65797;47.352;8.164;2024-02-26T02:20:37;0.63;;;0.63;;
76837;SDS011;65797;47.352;8.164;2024-02-26T02:23:03;0.50;;;0.50;;
76837;SDS011;65797;47.352;8.164;2024-02-26T02:25:29;2.00;;;0.50;;
76837;SDS011;65797;47.352;8.164;2024-02-26T02:27:55;1.20;;;0.70;;
76837;SDS011;65797;47.352;8.164;2024-02-26T02:30:22;0.60;;;0.60;;
76837;SDS011;65797;47.352;8.164;2024-02-26T02:32:51;0.70;;;0.70;;
76837;SDS011;65797;47.352;8.164;2024-02-26T02:35:18;0.80;;;0.70;;
76837;SDS011;65797;47.352;8.164;2024-02-26T02:37:44;0.60;;;0.60;;
76837;SDS011;65797;47.352;8.164;2024-02-26T02:40:09;0.73;;;0.73;;
76837;SDS011;65797;47.352;8.164;2024-02-26T02:42:35;2.83;;;0.70;;
76837;SDS011;65797;47.352;8.164;2024-02-26T02:45:01;0.60;;;0.60;;
76837;SDS011;65797;47.352;8.164;2024-02-26T02:47:27;0.83;;;0.60;;
76837;SDS011;65797;47.352;8.164;2024-02-26T02:49:52;0.90;;;0.80;;
76837;SDS011;65797;47.352;8.164;2024-02-26T02:52:18;0.77;;;0.70;;
76837;SDS011;65797;47.352;8.164;2024-02-26T02:54:44;0.70;;;0.70;;
76837;SDS011;65797;47.352;8.164;2024-02-26T02:57:09;0.80;;;0.80;;
76837;SDS011;65797;47.352;8.164;2024-02-26T02:59:36;0.70;;;0.70;;
76837;SDS011;65797;47.352;8.164;2024-02-26T03:02:02;0.60;;;0.60;;
76837;SDS011;65797;47.352;8.164;2024-02-26T03:04:28;1.47;;;0.70;;
76837;SDS011;65797;47.352;8.164;2024-02-26T03:06:54;0.90;;;0.70;;
76837;SDS011;65797;47.352;8.164;2024-02-26T03:09:20;0.70;;;0.70;;
76837;SDS011;65797;47.352;8.164;2024-02-26T03:11:46;0.60;;;0.50;;
76837;SDS011;65797;47.352;8.164;2024-02-26T03:14:11;0.90;;;0.90;;
76837;SDS011;65797;47.352;8.164;2024-02-26T03:16:37;1.70;;;0.63;;
76837;SDS011;65797;47.352;8.164;2024-02-26T03:19:03;0.80;;;0.80;;
76837;SDS011;65797;47.352;8.164;2024-02-26T03:21:29;0.70;;;0.70;;
76837;SDS011;65797;47.352;8.164;2024-02-26T03:23:54;0.77;;;0.77;;
76837;SDS011;65797;47.352;8.164;2024-02-26T03:26:20;0.60;;;0.60;;
76837;SDS011;65797;47.352;8.164;2024-02-26T03:28:46;2.10;;;0.97;;
76837;SDS011;65797;47.352;8.164;2024-02-26T03:31:12;0.83;;;0.70;;
76837;SDS011;65797;47.352;8.164;2024-02-26T03:33:38;0.70;;;0.70;;
76837;SDS011;65797;47.352;8.164;2024-02-26T03:36:04;0.80;;;0.70;;
76837;SDS011;65797;47.352;8.164;2024-02-26T03:38:30;0.60;;;0.60;;
76837;SDS011;65797;47.352;8.164;2024-02-26T03:40:55;0.80;;;0.80;;
76837;SDS011;65797;47.352;8.164;2024-02-26T03:43:21;0.80;;;0.80;;
76837;SDS011;65797;47.352;8.164;2024-02-26T03:45:47;1.10;;;0.87;;
76837;SDS011;65797;47.352;8.164;2024-02-26T03:48:13;0.80;;;0.80;;
76837;SDS011;65797;47.352;8.164;2024-02-26T03:50:38;1.40;;;1.00;;
76837;SDS011;65797;47.352;8.164;2024-02-26T03:53:04;1.43;;;0.80;;
76837;SDS011;65797;47.352;8.164;2024-02-26T03:55:30;0.70;;;0.70;;
76837;SDS011;65797;47.352;8.164;2024-02-26T03:57:56;0.70;;;0.70;;
76837;SDS011;65797;47.352;8.164;2024-02-26T04:00:21;0.80;;;0.80;;
76837;SDS011;65797;47.352;8.164;2024-02-26T04:02:47;0.70;;;0.70;;
76837;SDS011;65797;47.352;8.164;2024-02-26T04:05:13;0.63;;;0.63;;
76837;SDS011;65797;47.352;8.164;2024-02-26T04:07:40;1.23;;;0.80;;
76837;SDS011;65797;47.352;8.164;2024-02-26T04:10:09;2.20;;;0.70;;
76837;SDS011;65797;47.352;8.164;2024-02-26T04:12:37;1.20;;;0.70;;
76837;SDS011;65797;47.352;8.164;2024-02-26T04:15:07;0.83;;;0.50;;
76837;SDS011;65797;47.352;8.164;2024-02-26T04:17:34;0.60;;;0.60;;
76837;SDS011;65797;47.352;8.164;2024-02-26T04:20:01;0.70;;;0.70;;
76837;SDS011;65797;47.352;8.164;2024-02-26T04:22:27;1.00;;;0.90;;
76837;SDS011;65797;47.352;8.164;2024-02-26T04:24:53;0.67;;;0.67;;
76837;SDS011;65797;47.352;8.164;2024-02-26T04:27:18;0.80;;;0.80;;
76837;SDS011;65797;47.352;8.164;2024-02-26T04:29:44;1.53;;;0.87;;
76837;SDS011;65797;47.352;8.164;2024-02-26T04:32:10;0.70;;;0.70;;
76837;SDS011;65797;47.352;8.164;2024-02-26T04:34:35;0.80;;;0.73;;
76837;SDS011;65797;47.352;8.164;2024-02-26T04:37:01;0.70;;;0.70;;
76837;SDS011;65797;47.352;8.164;2024-02-26T04:39:27;0.70;;;0.70;;
76837;SDS011;65797;47.352;8.164;2024-02-26T04:41:54;0.63;;;0.63;;
76837;SDS011;65797;47.352;8.164;2024-02-26T04:44:20;0.90;;;0.73;;
76837;SDS011;65797;47.352;8.164;2024-02-26T04:46:45;0.70;;;0.70;;
76837;SDS011;65797;47.352;8.164;2024-02-26T04:49:11;0.80;;;0.80;;
76837;SDS011;65797;47.352;8.164;2024-02-26T04:51:37;0.60;;;0.60;;
76837;SDS011;65797;47.352;8.164;2024-02-26T04:54:03;0.60;;;0.60;;
76837;SDS011;65797;47.352;8.164;2024-02-26T04:56:28;0.70;;;0.70;;
76837;SDS011;65797;47.352;8.164;2024-02-26T04:58:54;0.70;;;0.70;;
76837;SDS011;65797;47.352;8.164;2024-02-26T05:01:20;0.70;;;0.70;;
76837;SDS011;65797;47.352;8.164;2024-02-26T05:03:46;0.50;;;0.50;;
76837;SDS011;65797;47.352;8.164;2024-02-26T05:06:12;0.70;;;0.70;;
76837;SDS011;65797;47.352;8.164;2024-02-26T05:08:38;0.57;;;0.57;;
76837;SDS011;65797;47.352;8.164;2024-02-26T05:11:04;0.83;;;0.83;;
76837;SDS011;65797;47.352;8.164;2024-02-26T05:13:31;0.70;;;0.70;;
76837;SDS011;65797;47.352;8.164;2024-02-26T05:15:57;0.73;;;0.73;;
76837;SDS011;65797;47.352;8.164;2024-02-26T05:18:23;0.80;;;0.63;;
76837;SDS011;65797;47.352;8.164;2024-02-26T05:20:48;0.60;;;0.60;;
76837;SDS011;65797;47.352;8.164;2024-02-26T05:23:14;0.60;;;0.60;;
76837;SDS011;65797;47.352;8.164;2024-02-26T05:25:40;1.73;;;0.60;;
76837;SDS011;65797;47.352;8.164;2024-02-26T05:28:06;1.03;;;0.70;;
76837;SDS011;65797;47.352;8.164;2024-02-26T05:30:32;0.70;;;0.70;;
76837;SDS011;65797;47.352;8.164;2024-02-26T05:32:58;0.50;;;0.50;;
76837;SDS011;65797;47.352;8.164;2024-02-26T05:35:24;2.60;;;0.90;;
76837;SDS011;65797;47.352;8.164;2024-02-26T05:37:50;1.13;;;0.60;;
76837;SDS011;65797;47.352;8.164;2024-02-26T05:40:16;0.80;;;0.80;;
76837;SDS011;65797;47.352;8.164;2024-02-26T05:42:42;0.60;;;0.60;;
76837;SDS011;65797;47.352;8.164;2024-02-26T05:45:10;0.80;;;0.80;;
76837;SDS011;65797;47.352;8.164;2024-02-26T05:47:36;0.77;;;0.77;;
76837;SDS011;65797;47.352;8.164;2024-02-26T05:50:07;0.70;;;0.70;;
76837;SDS011;65797;47.352;8.164;2024-02-26T05:52:39;0.90;;;0.80;;
76837;SDS011;65797;47.352;8.164;2024-02-26T05:55:05;0.70;;;0.70;;
76837;SDS011;65797;47.352;8.164;2024-02-26T05:57:32;1.13;;;0.70;;
76837;SDS011;65797;47.352;8.164;2024-02-26T05:59:59;1.10;;;1.00;;
76837;SDS011;65797;47.352;8.164;2024-02-26T06:02:28;0.90;;;0.90;;
76837;SDS011;65797;47.352;8.164;2024-02-26T06:04:55;1.33;;;0.90;;
76837;SDS011;65797;47.352;8.164;2024-02-26T06:07:20;1.03;;;0.93;;
76837;SDS011;65797;47.352;8.164;2024-02-26T06:09:46;0.90;;;0.90;;
76837;SDS011;65797;47.352;8.164;2024-02-26T06:12:11;1.13;;;1.03;;
76837;SDS011;65797;47.352;8.164;2024-02-26T06:14:37;0.90;;;0.90;;
76837;SDS011;65797;47.352;8.164;2024-02-26T06:17:03;0.87;;;0.83;;
76837;SDS011;65797;47.352;8.164;2024-02-26T06:19:29;1.03;;;1.03;;
76837;SDS011;65797;47.352;8.164;2024-02-26T06:21:54;1.10;;;1.10;;
76837;SDS011;65797;47.352;8.164;2024-02-26T06:24:20;1.60;;;0.80;;
76837;SDS011;65797;47.352;8.164;2024-02-26T06:26:47;1.00;;;1.00;;
76837;SDS011;65797;47.352;8.164;2024-02-26T06:29:13;0.73;;;0.73;;
76837;SDS011;65797;47.352;8.164;2024-02-26T06:31:39;0.80;;;0.80;;
76837;SDS011;65797;47.352;8.164;2024-02-26T06:34:05;6.73;;;0.80;;
76837;SDS011;65797;47.352;8.164;2024-02-26T06:36:31;1.00;;;0.90;;
76837;SDS011;65797;47.352;8.164;2024-02-26T06:38:57;0.73;;;0.73;;
76837;SDS011;65797;47.352;8.164;2024-02-26T06:41:23;0.70;;;0.70;;
76837;SDS011;65797;47.352;8.164;2024-02-26T06:43:53;1.70;;;0.90;;
76837;SDS011;65797;47.352;8.164;2024-02-26T06:46:19;1.17;;;0.90;;
76837;SDS011;65797;47.352;8.164;2024-02-26T06:48:45;0.80;;;0.80;;
76837;SDS011;65797;47.352;8.164;2024-02-26T06:51:10;0.80;;;0.80;;
76837;SDS011;65797;47.352;8.164;2024-02-26T06:53:36;0.67;;;0.67;;
76837;SDS011;65797;47.352;8.164;2024-02-26T06:56:02;0.80;;;0.80;;
76837;SDS011;65797;47.352;8.164;2024-02-26T06:58:27;0.90;;;0.90;;
76837;SDS011;65797;47.352;8.164;2024-02-26T07:00:53;1.47;;;1.00;;
76837;SDS011;65797;47.352;8.164;2024-02-26T07:03:19;1.80;;;1.00;;
76837;SDS011;65797;47.352;8.164;2024-02-26T07:05:44;1.20;;;1.20;;
76837;SDS011;65797;47.352;8.164;2024-02-26T07:08:11;1.87;;;1.70;;
76837;SDS011;65797;47.352;8.164;2024-02-26T07:10:37;0.70;;;0.70;;
76837;SDS011;65797;47.352;8.164;2024-02-26T07:13:02;5.83;;;0.80;;
76837;SDS011;65797;47.352;8.164;2024-02-26T07:15:28;0.90;;;0.80;;
76837;SDS011;65797;47.352;8.164;2024-02-26T07:17:54;1.27;;;1.00;;
76837;SDS011;65797;47.352;8.164;2024-02-26T07:20:21;0.80;;;0.80;;
76837;SDS011;65797;47.352;8.164;2024-02-26T07:22:47;1.00;;;1.00;;
76837;SDS011;65797;47.352;8.164;2024-02-26T07:30:23;0.90;;;0.90;;
76837;SDS011;65797;47.352;8.164;2024-02-26T07:32:49;2.17;;;1.30;;
76837;SDS011;65797;47.352;8.164;2024-02-26T07:40:28;1.10;;;0.90;;
76837;SDS011;65797;47.352;8.164;2024-02-26T07:42:53;1.00;;;1.00;;
76837;SDS011;65797;47.352;8.164;2024-02-26T09:23:14;3.00;;;0.90;;
76837;SDS011;65797;47.352;8.164;2024-02-26T09:25:39;0.70;;;0.70;;
76837;SDS011;65797;47.352;8.164;2024-02-26T10:48:09;1.10;;;1.00;;
76837;SDS011;65797;47.352;8.164;2024-02-26T10:50:36;0.80;;;0.80;;
76837;SDS011;65797;47.352;8.164;2024-02-26T10:53:03;1.20;;;1.10;;
76837;SDS011;65797;47.352;8.164;2024-02-26T10:55:35;1.23;;;0.83;;
76837;SDS011;65797;47.352;8.164;2024-02-26T10:58:02;0.67;;;0.67;;
76837;SDS011;65797;47.352;8.164;2024-02-26T11:34:08;1.00;;;1.00;;
76837;SDS011;65797;47.352;8.164;2024-02-26T11:36:35;2.97;;;1.00;;
76837;SDS011;65797;47.352;8.164;2024-02-26T11:39:02;1.10;;;1.10;;
76837;SDS011;65797;47.352;8.164;2024-02-26T11:41:29;1.37;;;0.90;;
76837;SDS011;65797;47.352;8.164;2024-02-26T11:43:59;8.30;;;1.37;;
76837;SDS011;65797;47.352;8.164;2024-02-26T11:48:56;2.33;;;1.70;;
76837;SDS011;65797;47.352;8.164;2024-02-26T11:51:35;6.03;;;1.17;;
76837;SDS011;65797;47.352;8.164;2024-02-26T13:51:51;1.20;;;1.13;;
76837;SDS011;65797;47.352;8.164;2024-02-26T13:54:17;1.73;;;1.10;;
76837;SDS011;65797;47.352;8.164;2024-02-26T13:56:42;1.10;;;1.00;;
76837;SDS011;65797;47.352;8.164;2024-02-26T13:59:09;1.33;;;1.10;;
76837;SDS011;65797;47.352;8.164;2024-02-26T14:01:34;2.00;;;1.20;;
76837;SDS011;65797;47.352;8.164;2024-02-26T16:50:52;2.93;;;1.17;;
76837;SDS011;65797;47.352;8.164;2024-02-26T16:53:18;1.57;;;1.47;;
76837;SDS011;65797;47.352;8.164;2024-02-26T16:55:44;2.63;;;2.00;;
76837;SDS011;65797;47.352;8.164;2024-02-26T16:58:09;1.30;;;1.23;;
76837;SDS011;65797;47.352;8.164;2024-02-26T20:07:36;3.83;;;2.40;;
76837;SDS011;65797;47.352;8.164;2024-02-26T21:03:38;2.93;;;2.30;;
76837;SDS011;65797;47.352;8.164;2024-02-26T21:06:04;2.00;;;1.83;;
76837;SDS011;65797;47.352;8.164;2024-02-26T21:08:30;6.80;;;2.47;;
76837;SDS011;65797;47.352;8.164;2024-02-26T21:10:56;8.87;;;5.10;;
76837;SDS011;65797;47.352;8.164;2024-02-26T21:13:21;3.33;;;2.80;;
76837;SDS011;65797;47.352;8.164;2024-02-26T21:15:47;9.93;;;3.33;;
76837;SDS011;65797;47.352;8.164;2024-02-26T21:18:13;4.43;;;3.50;;
76837;SDS011;65797;47.352;8.164;2024-02-26T21:20:38;3.10;;;2.30;;
76837;SDS011;65797;47.352;8.164;2024-02-26T21:23:04;5.63;;;2.10;;
76837;SDS011;65797;47.352;8.164;2024-02-26T21:35:54;2.90;;;2.60;;
76837;SDS011;65797;47.352;8.164;2024-02-26T21:38:21;3.23;;;2.40;;
76837;SDS011;65797;47.352;8.164;2024-02-26T21:45:58;2.60;;;2.40;;
76837;SDS011;65797;47.352;8.164;2024-02-26T21:48:24;2.90;;;2.63;;
76837;SDS011;65797;47.352;8.164;2024-02-26T21:50:50;2.93;;;2.50;;
76837;SDS011;65797;47.352;8.164;2024-02-26T21:53:19;3.17;;;2.30;;
76837;SDS011;65797;47.352;8.164;2024-02-26T21:55:45;3.03;;;2.73;;
76837;SDS011;65797;47.352;8.164;2024-02-26T21:58:10;3.30;;;2.90;;
76837;SDS011;65797;47.352;8.164;2024-02-26T22:00:36;5.00;;;2.43;;
76837;SDS011;65797;47.352;8.164;2024-02-26T22:03:03;4.10;;;2.33;;
76837;SDS011;65797;47.352;8.164;2024-02-26T22:05:29;5.27;;;2.90;;
76837;SDS011;65797;47.352;8.164;2024-02-26T22:07:54;3.30;;;2.73;;
76837;SDS011;65797;47.352;8.164;2024-02-26T22:10:20;3.60;;;2.27;;
76837;SDS011;65797;47.352;8.164;2024-02-26T22:12:46;5.03;;;2.50;;
76837;SDS011;65797;47.352;8.164;2024-02-26T22:15:12;2.83;;;2.23;;
76837;SDS011;65797;47.352;8.164;2024-02-26T22:17:38;3.23;;;2.73;;
76837;SDS011;65797;47.352;8.164;2024-02-26T22:20:06;2.60;;;2.20;;
76837;SDS011;65797;47.352;8.164;2024-02-26T22:22:33;4.57;;;2.40;;
76837;SDS011;65797;47.352;8.164;2024-02-26T22:24:59;6.23;;;2.27;;
76837;SDS011;65797;47.352;8.164;2024-02-26T22:27:24;14.13;;;3.57;;
76837;SDS011;65797;47.352;8.164;2024-02-26T22:29:50;4.60;;;2.40;;
76837;SDS011;65797;47.352;8.164;2024-02-26T22:32:16;2.47;;;2.27;;
76837;SDS011;65797;47.352;8.164;2024-02-26T22:34:42;9.10;;;2.60;;
76837;SDS011;65797;47.352;8.164;2024-02-26T22:37:08;2.83;;;1.90;;
76837;SDS011;65797;47.352;8.164;2024-02-26T22:39:33;2.50;;;2.30;;
76837;SDS011;65797;47.352;8.164;2024-02-26T22:41:59;2.50;;;2.30;;
76837;SDS011;65797;47.352;8.164;2024-02-26T22:44:25;5.30;;;2.53;;
76837;SDS011;65797;47.352;8.164;2024-02-26T22:46:52;3.27;;;2.40;;
76837;SDS011;65797;47.352;8.164;2024-02-26T22:49:18;3.80;;;2.60;;
76837;SDS011;65797;47.352;8.164;2024-02-26T22:51:44;2.40;;;2.13;;
76837;SDS011;65797;47.352;8.164;2024-02-26T22:54:09;6.60;;;2.33;;
76837;SDS011;65797;47.352;8.164;2024-02-26T22:59:11;4.83;;;3.07;;
76837;SDS011;65797;47.352;8.164;2024-02-26T23:01:36;2.80;;;2.20;;
76837;SDS011;65797;47.352;8.164;2024-02-26T23:04:02;6.50;;;2.30;;
76837;SDS011;65797;47.352;8.164;2024-02-26T23:06:28;2.40;;;2.20;;
76837;SDS011;65797;47.352;8.164;2024-02-26T23:08:54;5.90;;;2.67;;
76837;SDS011;65797;47.352;8.164;2024-02-26T23:11:20;3.40;;;2.33;;
76837;SDS011;65797;47.352;8.164;2024-02-26T23:13:46;2.90;;;2.60;;
76837;SDS011;65797;47.352;8.164;2024-02-26T23:16:12;5.50;;;3.10;;
76837;SDS011;65797;47.352;8.164;2024-02-26T23:18:37;2.00;;;1.90;;
76837;SDS011;65797;47.352;8.164;2024-02-26T23:21:03;3.10;;;2.27;;
